sensor_id;sensor_type;location;lat;lon;timestamp;P1;durP1;ratioP1;P2;durP2;ratioP2
9563;SDS011;4820;50.870;4.702;2022-09-27T00:02:01;3.45;;;1.20;;
9563;SDS011;4820;50.870;4.702;2022-09-27T00:04:27;3.40;;;1.33;;
9563;SDS011;4820;50.870;4.702;2022-09-27T00:06:52;3.60;;;1.40;;
9563;SDS011;4820;50.870;4.702;2022-09-27T00:09:18;3.45;;;1.33;;
9563;SDS011;4820;50.870;4.702;2022-09-27T00:11:44;3.95;;;1.48;;
9563;SDS011;4820;50.870;4.702;2022-09-27T00:14:12;4.32;;;1.42;;
9563;SDS011;4820;50.870;4.702;2022-09-27T00:16:40;2.67;;;1.33;;
9563;SDS011;4820;50.870;4.702;2022-09-27T00:19:17;3.05;;;1.40;;
9563;SDS011;4820;50.870;4.702;2022-09-27T00:21:44;3.45;;;1.48;;
9563;SDS011;4820;50.870;4.702;2022-09-27T00:24:14;4.75;;;1.30;;
9563;SDS011;4820;50.870;4.702;2022-09-27T00:26:41;2.42;;;1.20;;
9563;SDS011;4820;50.870;4.702;2022-09-27T00:29:07;4.20;;;1.70;;
9563;SDS011;4820;50.870;4.702;2022-09-27T00:31:34;5.05;;;1.50;;
9563;SDS011;4820;50.870;4.702;2022-09-27T00:34:02;5.55;;;1.65;;
9563;SDS011;4820;50.870;4.702;2022-09-27T00:36:30;3.55;;;1.50;;
9563;SDS011;4820;50.870;4.702;2022-09-27T00:38:57;4.63;;;1.55;;
9563;SDS011;4820;50.870;4.702;2022-09-27T00:41:28;3.22;;;1.48;;
9563;SDS011;4820;50.870;4.702;2022-09-27T00:43:57;2.97;;;1.70;;
9563;SDS011;4820;50.870;4.702;2022-09-27T00:46:27;2.92;;;1.73;;
9563;SDS011;4820;50.870;4.702;2022-09-27T00:51:44;4.97;;;1.90;;
9563;SDS011;4820;50.870;4.702;2022-09-27T00:54:13;4.45;;;1.80;;
9563;SDS011;4820;50.870;4.702;2022-09-27T00:56:41;5.38;;;1.83;;
9563;SDS011;4820;50.870;4.702;2022-09-27T00:59:54;2.28;;;1.50;;
9563;SDS011;4820;50.870;4.702;2022-09-27T01:01:58;3.60;;;1.33;;
9563;SDS011;4820;50.870;4.702;2022-09-27T01:04:26;4.57;;;1.55;;
9563;SDS011;4820;50.870;4.702;2022-09-27T01:06:53;3.90;;;1.20;;
9563;SDS011;4820;50.870;4.702;2022-09-27T01:09:19;3.38;;;1.50;;
9563;SDS011;4820;50.870;4.702;2022-09-27T01:19:46;4.45;;;1.65;;
9563;SDS011;4820;50.870;4.702;2022-09-27T01:28:19;3.42;;;1.55;;
9563;SDS011;4820;50.870;4.702;2022-09-27T01:31:26;5.35;;;1.27;;
9563;SDS011;4820;50.870;4.702;2022-09-27T01:34:01;3.58;;;1.20;;
9563;SDS011;4820;50.870;4.702;2022-09-27T01:44:28;2.97;;;1.38;;
9563;SDS011;4820;50.870;4.702;2022-09-27T01:47:00;2.15;;;0.85;;
9563;SDS011;4820;50.870;4.702;2022-09-27T01:49:44;2.47;;;0.95;;
9563;SDS011;4820;50.870;4.702;2022-09-27T01:52:30;3.63;;;1.23;;
9563;SDS011;4820;50.870;4.702;2022-09-27T01:55:02;3.10;;;1.08;;
9563;SDS011;4820;50.870;4.702;2022-09-27T01:57:34;2.85;;;0.98;;
9563;SDS011;4820;50.870;4.702;2022-09-27T02:00:06;3.15;;;1.10;;
9563;SDS011;4820;50.870;4.702;2022-09-27T02:02:38;3.28;;;1.10;;
9563;SDS011;4820;50.870;4.702;2022-09-27T02:05:10;3.08;;;1.13;;
9563;SDS011;4820;50.870;4.702;2022-09-27T02:10:39;1.88;;;0.85;;
9563;SDS011;4820;50.870;4.702;2022-09-27T02:13:20;2.42;;;1.00;;
9563;SDS011;4820;50.870;4.702;2022-09-27T02:15:56;3.15;;;1.10;;
9563;SDS011;4820;50.870;4.702;2022-09-27T02:18:51;5.22;;;1.30;;
9563;SDS011;4820;50.870;4.702;2022-09-27T02:21:41;3.05;;;1.10;;
9563;SDS011;4820;50.870;4.702;2022-09-27T02:24:23;2.25;;;1.10;;
9563;SDS011;4820;50.870;4.702;2022-09-27T02:27:33;1.55;;;0.80;;
9563;SDS011;4820;50.870;4.702;2022-09-27T02:30:07;6.28;;;1.20;;
9563;SDS011;4820;50.870;4.702;2022-09-27T02:32:37;2.95;;;1.20;;
9563;SDS011;4820;50.870;4.702;2022-09-27T02:35:08;3.25;;;0.90;;
9563;SDS011;4820;50.870;4.702;2022-09-27T02:37:54;2.20;;;1.15;;
9563;SDS011;4820;50.870;4.702;2022-09-27T02:40:21;3.05;;;0.98;;
9563;SDS011;4820;50.870;4.702;2022-09-27T02:42:50;3.58;;;0.90;;
9563;SDS011;4820;50.870;4.702;2022-09-27T02:45:17;3.97;;;1.25;;
9563;SDS011;4820;50.870;4.702;2022-09-27T02:48:03;2.30;;;1.10;;
9563;SDS011;4820;50.870;4.702;2022-09-27T02:56:14;3.08;;;1.10;;
9563;SDS011;4820;50.870;4.702;2022-09-27T03:06:55;3.22;;;1.08;;
9563;SDS011;4820;50.870;4.702;2022-09-27T03:09:26;2.78;;;0.85;;
9563;SDS011;4820;50.870;4.702;2022-09-27T03:11:53;2.15;;;1.05;;
9563;SDS011;4820;50.870;4.702;2022-09-27T03:14:19;1.35;;;0.73;;
9563;SDS011;4820;50.870;4.702;2022-09-27T03:16:45;2.42;;;1.10;;
9563;SDS011;4820;50.870;4.702;2022-09-27T03:19:11;3.08;;;1.02;;
9563;SDS011;4820;50.870;4.702;2022-09-27T03:21:37;3.60;;;1.00;;
9563;SDS011;4820;50.870;4.702;2022-09-27T03:24:04;2.92;;;0.85;;
9563;SDS011;4820;50.870;4.702;2022-09-27T03:26:32;2.95;;;0.93;;
9563;SDS011;4820;50.870;4.702;2022-09-27T03:28:58;2.22;;;1.17;;
9563;SDS011;4820;50.870;4.702;2022-09-27T03:31:24;2.05;;;0.82;;
9563;SDS011;4820;50.870;4.702;2022-09-27T03:33:50;2.78;;;0.98;;
9563;SDS011;4820;50.870;4.702;2022-09-27T03:36:15;3.22;;;1.45;;
9563;SDS011;4820;50.870;4.702;2022-09-27T03:38:41;3.17;;;1.10;;
9563;SDS011;4820;50.870;4.702;2022-09-27T03:41:07;2.90;;;0.90;;
9563;SDS011;4820;50.870;4.702;2022-09-27T03:43:32;5.22;;;2.20;;
9563;SDS011;4820;50.870;4.702;2022-09-27T03:45:58;3.83;;;1.30;;
9563;SDS011;4820;50.870;4.702;2022-09-27T03:48:24;3.08;;;1.10;;
9563;SDS011;4820;50.870;4.702;2022-09-27T03:50:50;2.45;;;0.80;;
9563;SDS011;4820;50.870;4.702;2022-09-27T03:53:16;4.30;;;1.20;;
9563;SDS011;4820;50.870;4.702;2022-09-27T03:55:44;2.17;;;1.20;;
9563;SDS011;4820;50.870;4.702;2022-09-27T03:58:10;1.95;;;0.95;;
9563;SDS011;4820;50.870;4.702;2022-09-27T04:00:35;1.20;;;1.10;;
9563;SDS011;4820;50.870;4.702;2022-09-27T04:03:01;3.50;;;1.17;;
9563;SDS011;4820;50.870;4.702;2022-09-27T04:05:27;2.17;;;1.02;;
9563;SDS011;4820;50.870;4.702;2022-09-27T04:07:53;2.00;;;0.95;;
9563;SDS011;4820;50.870;4.702;2022-09-27T04:10:20;4.18;;;1.30;;
9563;SDS011;4820;50.870;4.702;2022-09-27T04:12:46;2.83;;;0.82;;
9563;SDS011;4820;50.870;4.702;2022-09-27T04:15:11;2.75;;;1.00;;
9563;SDS011;4820;50.870;4.702;2022-09-27T04:17:39;2.25;;;1.00;;
9563;SDS011;4820;50.870;4.702;2022-09-27T04:20:07;0.98;;;0.73;;
9563;SDS011;4820;50.870;4.702;2022-09-27T04:22:33;1.67;;;1.10;;
9563;SDS011;4820;50.870;4.702;2022-09-27T04:24:59;3.95;;;1.20;;
9563;SDS011;4820;50.870;4.702;2022-09-27T04:27:24;3.53;;;1.33;;
9563;SDS011;4820;50.870;4.702;2022-09-27T04:29:50;2.30;;;1.05;;
9563;SDS011;4820;50.870;4.702;2022-09-27T04:32:16;1.67;;;1.05;;
9563;SDS011;4820;50.870;4.702;2022-09-27T04:34:42;3.60;;;1.42;;
9563;SDS011;4820;50.870;4.702;2022-09-27T04:37:26;1.95;;;1.20;;
9563;SDS011;4820;50.870;4.702;2022-09-27T04:39:51;4.50;;;1.50;;
9563;SDS011;4820;50.870;4.702;2022-09-27T04:42:17;2.72;;;1.40;;
9563;SDS011;4820;50.870;4.702;2022-09-27T04:44:43;2.38;;;1.10;;
9563;SDS011;4820;50.870;4.702;2022-09-27T04:47:12;3.35;;;1.48;;
9563;SDS011;4820;50.870;4.702;2022-09-27T04:49:38;2.83;;;1.30;;
9563;SDS011;4820;50.870;4.702;2022-09-27T04:52:04;3.03;;;1.33;;
9563;SDS011;4820;50.870;4.702;2022-09-27T04:54:30;2.78;;;1.50;;
9563;SDS011;4820;50.870;4.702;2022-09-27T04:56:56;4.18;;;1.48;;
9563;SDS011;4820;50.870;4.702;2022-09-27T04:59:22;3.53;;;1.50;;
9563;SDS011;4820;50.870;4.702;2022-09-27T05:01:47;3.30;;;1.40;;
9563;SDS011;4820;50.870;4.702;2022-09-27T05:04:14;4.25;;;1.40;;
9563;SDS011;4820;50.870;4.702;2022-09-27T05:06:40;3.22;;;1.45;;
9563;SDS011;4820;50.870;4.702;2022-09-27T05:09:06;5.05;;;1.80;;
9563;SDS011;4820;50.870;4.702;2022-09-27T05:11:31;3.05;;;1.48;;
9563;SDS011;4820;50.870;4.702;2022-09-27T05:13:57;4.53;;;1.77;;
9563;SDS011;4820;50.870;4.702;2022-09-27T05:16:23;3.08;;;1.52;;
9563;SDS011;4820;50.870;4.702;2022-09-27T05:18:49;2.47;;;1.50;;
9563;SDS011;4820;50.870;4.702;2022-09-27T05:21:14;2.95;;;1.60;;
9563;SDS011;4820;50.870;4.702;2022-09-27T05:23:40;5.05;;;1.70;;
9563;SDS011;4820;50.870;4.702;2022-09-27T05:26:06;4.25;;;1.80;;
9563;SDS011;4820;50.870;4.702;2022-09-27T05:28:32;4.63;;;2.50;;
9563;SDS011;4820;50.870;4.702;2022-09-27T05:31:01;3.53;;;1.77;;
9563;SDS011;4820;50.870;4.702;2022-09-27T05:33:27;3.70;;;1.70;;
9563;SDS011;4820;50.870;4.702;2022-09-27T05:35:53;4.40;;;1.90;;
9563;SDS011;4820;50.870;4.702;2022-09-27T05:38:20;3.00;;;1.70;;
9563;SDS011;4820;50.870;4.702;2022-09-27T05:40:46;4.38;;;1.85;;
9563;SDS011;4820;50.870;4.702;2022-09-27T05:43:15;3.22;;;1.75;;
9563;SDS011;4820;50.870;4.702;2022-09-27T05:45:41;3.33;;;1.83;;
9563;SDS011;4820;50.870;4.702;2022-09-27T05:48:08;3.42;;;1.80;;
9563;SDS011;4820;50.870;4.702;2022-09-27T05:50:34;3.25;;;2.00;;
9563;SDS011;4820;50.870;4.702;2022-09-27T05:53:00;2.72;;;2.10;;
9563;SDS011;4820;50.870;4.702;2022-09-27T05:55:26;3.08;;;2.00;;
9563;SDS011;4820;50.870;4.702;2022-09-27T05:58:02;3.78;;;2.08;;
9563;SDS011;4820;50.870;4.702;2022-09-27T06:00:30;2.90;;;2.10;;
9563;SDS011;4820;50.870;4.702;2022-09-27T06:02:57;3.33;;;2.13;;
9563;SDS011;4820;50.870;4.702;2022-09-27T06:05:25;4.35;;;2.42;;
9563;SDS011;4820;50.870;4.702;2022-09-27T06:07:57;2.97;;;2.30;;
9563;SDS011;4820;50.870;4.702;2022-09-27T06:10:27;2.88;;;2.20;;
9563;SDS011;4820;50.870;4.702;2022-09-27T06:13:00;2.97;;;2.20;;
9563;SDS011;4820;50.870;4.702;2022-09-27T06:15:28;2.42;;;2.20;;
9563;SDS011;4820;50.870;4.702;2022-09-27T06:17:55;3.90;;;2.30;;
9563;SDS011;4820;50.870;4.702;2022-09-27T06:20:22;3.50;;;2.42;;
9563;SDS011;4820;50.870;4.702;2022-09-27T06:22:47;5.38;;;3.35;;
9563;SDS011;4820;50.870;4.702;2022-09-27T06:25:13;5.38;;;3.42;;
9563;SDS011;4820;50.870;4.702;2022-09-27T06:27:41;5.00;;;3.03;;
9563;SDS011;4820;50.870;4.702;2022-09-27T06:30:09;5.43;;;3.05;;
9563;SDS011;4820;50.870;4.702;2022-09-27T06:32:36;4.55;;;2.75;;
9563;SDS011;4820;50.870;4.702;2022-09-27T06:35:03;4.93;;;2.60;;
9563;SDS011;4820;50.870;4.702;2022-09-27T06:37:30;3.08;;;2.35;;
9563;SDS011;4820;50.870;4.702;2022-09-27T06:39:55;4.35;;;2.50;;
9563;SDS011;4820;50.870;4.702;2022-09-27T06:42:21;4.82;;;2.42;;
9563;SDS011;4820;50.870;4.702;2022-09-27T06:44:47;3.08;;;2.30;;
9563;SDS011;4820;50.870;4.702;2022-09-27T06:47:15;3.03;;;2.40;;
9563;SDS011;4820;50.870;4.702;2022-09-27T06:49:41;3.85;;;2.60;;
9563;SDS011;4820;50.870;4.702;2022-09-27T06:52:07;3.78;;;2.42;;
9563;SDS011;4820;50.870;4.702;2022-09-27T06:54:33;3.13;;;2.33;;
9563;SDS011;4820;50.870;4.702;2022-09-27T06:56:58;3.53;;;2.40;;
9563;SDS011;4820;50.870;4.702;2022-09-27T06:59:24;2.97;;;2.13;;
9563;SDS011;4820;50.870;4.702;2022-09-27T07:02:08;2.35;;;2.10;;
9563;SDS011;4820;50.870;4.702;2022-09-27T07:04:35;3.55;;;2.50;;
9563;SDS011;4820;50.870;4.702;2022-09-27T07:07:01;3.25;;;2.15;;
9563;SDS011;4820;50.870;4.702;2022-09-27T07:09:26;3.15;;;2.50;;
9563;SDS011;4820;50.870;4.702;2022-09-27T07:11:52;3.42;;;2.33;;
9563;SDS011;4820;50.870;4.702;2022-09-27T07:14:19;3.83;;;2.50;;
9563;SDS011;4820;50.870;4.702;2022-09-27T07:16:45;4.65;;;2.50;;
9563;SDS011;4820;50.870;4.702;2022-09-27T07:19:11;3.47;;;2.30;;
9563;SDS011;4820;50.870;4.702;2022-09-27T07:21:38;2.75;;;2.20;;
9563;SDS011;4820;50.870;4.702;2022-09-27T07:24:04;2.90;;;2.22;;
9563;SDS011;4820;50.870;4.702;2022-09-27T07:26:30;2.92;;;2.30;;
9563;SDS011;4820;50.870;4.702;2022-09-27T07:28:56;2.50;;;2.20;;
9563;SDS011;4820;50.870;4.702;2022-09-27T07:31:22;2.45;;;2.22;;
9563;SDS011;4820;50.870;4.702;2022-09-27T07:33:48;3.75;;;2.42;;
9563;SDS011;4820;50.870;4.702;2022-09-27T07:36:14;3.22;;;2.03;;
9563;SDS011;4820;50.870;4.702;2022-09-27T07:38:40;5.15;;;2.38;;
9563;SDS011;4820;50.870;4.702;2022-09-27T07:41:11;3.38;;;2.17;;
9563;SDS011;4820;50.870;4.702;2022-09-27T07:43:41;3.17;;;2.10;;
9563;SDS011;4820;50.870;4.702;2022-09-27T07:46:10;4.05;;;2.30;;
9563;SDS011;4820;50.870;4.702;2022-09-27T07:48:37;2.53;;;2.30;;
9563;SDS011;4820;50.870;4.702;2022-09-27T07:51:03;2.53;;;2.20;;
9563;SDS011;4820;50.870;4.702;2022-09-27T07:53:31;3.15;;;2.47;;
9563;SDS011;4820;50.870;4.702;2022-09-27T07:55:58;3.90;;;2.80;;
9563;SDS011;4820;50.870;4.702;2022-09-27T07:58:24;3.78;;;2.53;;
9563;SDS011;4820;50.870;4.702;2022-09-27T08:00:50;3.72;;;2.83;;
9563;SDS011;4820;50.870;4.702;2022-09-27T08:03:16;4.30;;;2.65;;
9563;SDS011;4820;50.870;4.702;2022-09-27T08:05:42;5.70;;;2.78;;
9563;SDS011;4820;50.870;4.702;2022-09-27T08:08:11;3.45;;;2.45;;
9563;SDS011;4820;50.870;4.702;2022-09-27T08:10:38;2.92;;;2.30;;
9563;SDS011;4820;50.870;4.702;2022-09-27T08:13:11;3.28;;;2.28;;
9563;SDS011;4820;50.870;4.702;2022-09-27T08:15:37;3.70;;;2.15;;
9563;SDS011;4820;50.870;4.702;2022-09-27T08:18:04;3.30;;;2.10;;
9563;SDS011;4820;50.870;4.702;2022-09-27T08:20:32;2.83;;;2.20;;
9563;SDS011;4820;50.870;4.702;2022-09-27T08:22:57;3.72;;;2.47;;
9563;SDS011;4820;50.870;4.702;2022-09-27T08:25:23;2.65;;;2.45;;
9563;SDS011;4820;50.870;4.702;2022-09-27T08:27:57;4.05;;;2.47;;
9563;SDS011;4820;50.870;4.702;2022-09-27T08:30:25;4.70;;;2.50;;
9563;SDS011;4820;50.870;4.702;2022-09-27T08:32:54;2.97;;;2.35;;
9563;SDS011;4820;50.870;4.702;2022-09-27T08:35:20;2.67;;;2.10;;
9563;SDS011;4820;50.870;4.702;2022-09-27T08:37:53;4.65;;;2.50;;
9563;SDS011;4820;50.870;4.702;2022-09-27T08:40:50;3.75;;;2.38;;
9563;SDS011;4820;50.870;4.702;2022-09-27T08:48:40;4.50;;;1.95;;
9563;SDS011;4820;50.870;4.702;2022-09-27T08:51:09;4.07;;;1.98;;
9563;SDS011;4820;50.870;4.702;2022-09-27T08:56:06;4.10;;;2.20;;
9563;SDS011;4820;50.870;4.702;2022-09-27T08:58:38;3.97;;;2.25;;
9563;SDS011;4820;50.870;4.702;2022-09-27T09:01:13;4.72;;;2.33;;
9563;SDS011;4820;50.870;4.702;2022-09-27T09:03:45;3.00;;;2.00;;
9563;SDS011;4820;50.870;4.702;2022-09-27T09:06:26;4.32;;;2.20;;
9563;SDS011;4820;50.870;4.702;2022-09-27T09:11:48;4.75;;;2.35;;
9563;SDS011;4820;50.870;4.702;2022-09-27T09:29:15;2.97;;;1.90;;
9563;SDS011;4820;50.870;4.702;2022-09-27T09:32:03;3.60;;;1.80;;
9563;SDS011;4820;50.870;4.702;2022-09-27T09:34:42;5.13;;;2.65;;
9563;SDS011;4820;50.870;4.702;2022-09-27T09:37:22;4.20;;;2.13;;
9563;SDS011;4820;50.870;4.702;2022-09-27T09:43:06;3.50;;;1.90;;
9563;SDS011;4820;50.870;4.702;2022-09-27T09:45:38;2.78;;;1.60;;
9563;SDS011;4820;50.870;4.702;2022-09-27T09:48:29;3.00;;;1.60;;
9563;SDS011;4820;50.870;4.702;2022-09-27T09:51:05;2.22;;;1.65;;
9563;SDS011;4820;50.870;4.702;2022-09-27T09:56:25;2.70;;;1.48;;
9563;SDS011;4820;50.870;4.702;2022-09-27T10:01:36;2.97;;;1.40;;
9563;SDS011;4820;50.870;4.702;2022-09-27T10:04:14;2.72;;;1.40;;
9563;SDS011;4820;50.870;4.702;2022-09-27T10:06:44;3.15;;;1.25;;
9563;SDS011;4820;50.870;4.702;2022-09-27T10:09:15;2.40;;;1.27;;
9563;SDS011;4820;50.870;4.702;2022-09-27T10:11:45;2.80;;;1.13;;
9563;SDS011;4820;50.870;4.702;2022-09-27T10:14:13;3.03;;;1.13;;
9563;SDS011;4820;50.870;4.702;2022-09-27T10:16:42;3.03;;;1.20;;
9563;SDS011;4820;50.870;4.702;2022-09-27T10:19:14;3.38;;;1.40;;
9563;SDS011;4820;50.870;4.702;2022-09-27T10:21:45;5.75;;;1.70;;
9563;SDS011;4820;50.870;4.702;2022-09-27T10:24:14;2.90;;;1.48;;
9563;SDS011;4820;50.870;4.702;2022-09-27T10:26:42;2.90;;;1.50;;
9563;SDS011;4820;50.870;4.702;2022-09-27T10:31:46;3.53;;;1.40;;
9563;SDS011;4820;50.870;4.702;2022-09-27T10:34:19;2.33;;;1.48;;
9563;SDS011;4820;50.870;4.702;2022-09-27T10:36:45;2.75;;;1.33;;
9563;SDS011;4820;50.870;4.702;2022-09-27T10:39:29;3.13;;;1.60;;
9563;SDS011;4820;50.870;4.702;2022-09-27T10:41:54;4.07;;;1.70;;
9563;SDS011;4820;50.870;4.702;2022-09-27T10:44:30;3.78;;;1.80;;
9563;SDS011;4820;50.870;4.702;2022-09-27T10:47:00;3.47;;;1.60;;
9563;SDS011;4820;50.870;4.702;2022-09-27T10:49:35;4.45;;;1.85;;
9563;SDS011;4820;50.870;4.702;2022-09-27T10:52:07;5.53;;;1.80;;
9563;SDS011;4820;50.870;4.702;2022-09-27T10:55:06;4.25;;;1.60;;
9563;SDS011;4820;50.870;4.702;2022-09-27T10:57:51;4.10;;;2.00;;
9563;SDS011;4820;50.870;4.702;2022-09-27T11:00:23;3.05;;;1.70;;
9563;SDS011;4820;50.870;4.702;2022-09-27T11:05:33;3.47;;;1.73;;
9563;SDS011;4820;50.870;4.702;2022-09-27T11:08:01;5.10;;;1.77;;
9563;SDS011;4820;50.870;4.702;2022-09-27T11:10:59;5.03;;;1.70;;
9563;SDS011;4820;50.870;4.702;2022-09-27T11:13:40;4.15;;;1.63;;
9563;SDS011;4820;50.870;4.702;2022-09-27T11:24:27;5.57;;;2.10;;
9563;SDS011;4820;50.870;4.702;2022-09-27T11:32:08;4.18;;;2.00;;
9563;SDS011;4820;50.870;4.702;2022-09-27T11:37:35;6.93;;;2.50;;
9563;SDS011;4820;50.870;4.702;2022-09-27T11:42:54;4.13;;;2.00;;
9563;SDS011;4820;50.870;4.702;2022-09-27T11:56:09;3.80;;;1.27;;
9563;SDS011;4820;50.870;4.702;2022-09-27T12:10:02;2.85;;;1.15;;
9563;SDS011;4820;50.870;4.702;2022-09-27T12:12:34;3.13;;;1.27;;
9563;SDS011;4820;50.870;4.702;2022-09-27T12:15:03;3.08;;;1.30;;
9563;SDS011;4820;50.870;4.702;2022-09-27T12:17:37;2.58;;;1.00;;
9563;SDS011;4820;50.870;4.702;2022-09-27T12:20:08;2.53;;;0.77;;
9563;SDS011;4820;50.870;4.702;2022-09-27T12:25:17;1.85;;;0.90;;
9563;SDS011;4820;50.870;4.702;2022-09-27T12:27:51;3.67;;;1.23;;
9563;SDS011;4820;50.870;4.702;2022-09-27T12:30:21;3.00;;;1.15;;
9563;SDS011;4820;50.870;4.702;2022-09-27T12:32:54;4.50;;;1.30;;
9563;SDS011;4820;50.870;4.702;2022-09-27T12:35:53;2.65;;;1.23;;
9563;SDS011;4820;50.870;4.702;2022-09-27T12:41:07;2.70;;;1.27;;
9563;SDS011;4820;50.870;4.702;2022-09-27T12:43:38;2.90;;;1.30;;
9563;SDS011;4820;50.870;4.702;2022-09-27T12:51:36;2.95;;;1.52;;
9563;SDS011;4820;50.870;4.702;2022-09-27T12:56:48;4.57;;;1.40;;
9563;SDS011;4820;50.870;4.702;2022-09-27T13:11:05;2.28;;;1.42;;
9563;SDS011;4820;50.870;4.702;2022-09-27T13:13:35;4.25;;;1.65;;
9563;SDS011;4820;50.870;4.702;2022-09-27T13:16:03;3.60;;;1.65;;
9563;SDS011;4820;50.870;4.702;2022-09-27T13:18:47;5.57;;;1.95;;
9563;SDS011;4820;50.870;4.702;2022-09-27T13:35:41;4.75;;;1.85;;
9563;SDS011;4820;50.870;4.702;2022-09-27T13:38:26;4.32;;;1.88;;
9563;SDS011;4820;50.870;4.702;2022-09-27T13:40:52;2.88;;;1.50;;
9563;SDS011;4820;50.870;4.702;2022-09-27T13:46:18;3.72;;;1.42;;
9563;SDS011;4820;50.870;4.702;2022-09-27T13:51:49;3.38;;;1.40;;
9563;SDS011;4820;50.870;4.702;2022-09-27T13:55:36;2.33;;;1.17;;
9563;SDS011;4820;50.870;4.702;2022-09-27T14:00:04;4.45;;;1.60;;
9563;SDS011;4820;50.870;4.702;2022-09-27T14:02:38;4.03;;;1.40;;
9563;SDS011;4820;50.870;4.702;2022-09-27T14:05:16;1.88;;;1.25;;
9563;SDS011;4820;50.870;4.702;2022-09-27T14:07:45;2.75;;;1.17;;
9563;SDS011;4820;50.870;4.702;2022-09-27T14:10:15;2.22;;;1.20;;
9563;SDS011;4820;50.870;4.702;2022-09-27T14:12:46;5.15;;;1.40;;
9563;SDS011;4820;50.870;4.702;2022-09-27T14:15:27;4.60;;;1.58;;
9563;SDS011;4820;50.870;4.702;2022-09-27T14:17:56;3.03;;;1.30;;
9563;SDS011;4820;50.870;4.702;2022-09-27T14:23:00;2.92;;;1.30;;
9563;SDS011;4820;50.870;4.702;2022-09-27T14:25:27;2.42;;;1.38;;
9563;SDS011;4820;50.870;4.702;2022-09-27T14:27:54;3.42;;;1.48;;
9563;SDS011;4820;50.870;4.702;2022-09-27T14:30:24;5.00;;;1.60;;
9563;SDS011;4820;50.870;4.702;2022-09-27T14:32:53;4.32;;;1.77;;
9563;SDS011;4820;50.870;4.702;2022-09-27T14:38:09;5.80;;;1.90;;
9563;SDS011;4820;50.870;4.702;2022-09-27T14:40:38;5.13;;;1.63;;
9563;SDS011;4820;50.870;4.702;2022-09-27T14:43:10;3.90;;;1.60;;
9563;SDS011;4820;50.870;4.702;2022-09-27T14:45:40;3.38;;;1.70;;
9563;SDS011;4820;50.870;4.702;2022-09-27T14:51:37;4.15;;;1.55;;
9563;SDS011;4820;50.870;4.702;2022-09-27T14:53:47;4.43;;;1.70;;
9563;SDS011;4820;50.870;4.702;2022-09-27T14:56:18;4.45;;;2.20;;
9563;SDS011;4820;50.870;4.702;2022-09-27T14:58:48;4.53;;;1.80;;
9563;SDS011;4820;50.870;4.702;2022-09-27T15:01:20;5.38;;;1.48;;
9563;SDS011;4820;50.870;4.702;2022-09-27T15:03:48;4.63;;;1.70;;
9563;SDS011;4820;50.870;4.702;2022-09-27T15:06:18;3.80;;;1.60;;
9563;SDS011;4820;50.870;4.702;2022-09-27T15:08:44;5.70;;;1.73;;
9563;SDS011;4820;50.870;4.702;2022-09-27T15:11:13;4.35;;;1.85;;
9563;SDS011;4820;50.870;4.702;2022-09-27T15:13:42;4.18;;;1.95;;
9563;SDS011;4820;50.870;4.702;2022-09-27T15:16:12;5.00;;;2.05;;
9563;SDS011;4820;50.870;4.702;2022-09-27T15:18:47;7.68;;;2.10;;
9563;SDS011;4820;50.870;4.702;2022-09-27T15:24:03;4.55;;;1.95;;
9563;SDS011;4820;50.870;4.702;2022-09-27T15:26:45;4.70;;;1.77;;
9563;SDS011;4820;50.870;4.702;2022-09-27T15:29:22;4.07;;;1.80;;
9563;SDS011;4820;50.870;4.702;2022-09-27T15:32:02;6.57;;;1.67;;
9563;SDS011;4820;50.870;4.702;2022-09-27T15:34:30;3.45;;;1.42;;
9563;SDS011;4820;50.870;4.702;2022-09-27T15:37:01;5.60;;;1.40;;
9563;SDS011;4820;50.870;4.702;2022-09-27T15:42:03;2.80;;;1.58;;
9563;SDS011;4820;50.870;4.702;2022-09-27T15:50:41;4.57;;;1.70;;
9563;SDS011;4820;50.870;4.702;2022-09-27T15:52:52;4.55;;;1.92;;
9563;SDS011;4820;50.870;4.702;2022-09-27T15:55:27;5.25;;;2.15;;
9563;SDS011;4820;50.870;4.702;2022-09-27T15:57:55;2.88;;;1.80;;
9563;SDS011;4820;50.870;4.702;2022-09-27T16:00:24;4.45;;;2.17;;
9563;SDS011;4820;50.870;4.702;2022-09-27T16:02:51;3.58;;;2.00;;
9563;SDS011;4820;50.870;4.702;2022-09-27T16:05:17;3.65;;;2.00;;
9563;SDS011;4820;50.870;4.702;2022-09-27T16:07:43;6.05;;;2.40;;
9563;SDS011;4820;50.870;4.702;2022-09-27T16:10:20;4.47;;;1.70;;
9563;SDS011;4820;50.870;4.702;2022-09-27T16:12:48;4.97;;;1.67;;
9563;SDS011;4820;50.870;4.702;2022-09-27T16:15:16;4.03;;;1.80;;
9563;SDS011;4820;50.870;4.702;2022-09-27T16:17:43;5.25;;;1.63;;
9563;SDS011;4820;50.870;4.702;2022-09-27T16:20:14;5.13;;;2.13;;
9563;SDS011;4820;50.870;4.702;2022-09-27T16:22:47;3.38;;;1.58;;
9563;SDS011;4820;50.870;4.702;2022-09-27T16:25:13;2.25;;;1.50;;
9563;SDS011;4820;50.870;4.702;2022-09-27T16:27:38;3.67;;;1.50;;
9563;SDS011;4820;50.870;4.702;2022-09-27T16:30:06;3.08;;;1.50;;
9563;SDS011;4820;50.870;4.702;2022-09-27T16:32:33;4.65;;;1.67;;
9563;SDS011;4820;50.870;4.702;2022-09-27T16:35:05;4.57;;;1.90;;
9563;SDS011;4820;50.870;4.702;2022-09-27T16:37:30;4.22;;;1.80;;
9563;SDS011;4820;50.870;4.702;2022-09-27T16:39:58;4.45;;;2.25;;
9563;SDS011;4820;50.870;4.702;2022-09-27T16:42:24;4.78;;;2.30;;
9563;SDS011;4820;50.870;4.702;2022-09-27T16:44:51;3.97;;;2.05;;
9563;SDS011;4820;50.870;4.702;2022-09-27T16:47:17;4.25;;;2.30;;
9563;SDS011;4820;50.870;4.702;2022-09-27T16:49:45;5.10;;;2.70;;
9563;SDS011;4820;50.870;4.702;2022-09-27T16:52:29;6.18;;;3.17;;
9563;SDS011;4820;50.870;4.702;2022-09-27T16:54:57;4.22;;;2.50;;
9563;SDS011;4820;50.870;4.702;2022-09-27T16:57:24;3.55;;;2.03;;
9563;SDS011;4820;50.870;4.702;2022-09-27T16:59:52;3.75;;;2.08;;
9563;SDS011;4820;50.870;4.702;2022-09-27T17:02:20;4.05;;;1.80;;
9563;SDS011;4820;50.870;4.702;2022-09-27T17:04:46;4.20;;;1.80;;
9563;SDS011;4820;50.870;4.702;2022-09-27T17:07:12;4.43;;;1.80;;
9563;SDS011;4820;50.870;4.702;2022-09-27T17:09:38;2.35;;;1.40;;
9563;SDS011;4820;50.870;4.702;2022-09-27T17:12:04;3.70;;;1.70;;
9563;SDS011;4820;50.870;4.702;2022-09-27T17:14:31;2.70;;;1.70;;
9563;SDS011;4820;50.870;4.702;2022-09-27T17:16:57;3.28;;;1.67;;
9563;SDS011;4820;50.870;4.702;2022-09-27T17:19:23;3.92;;;2.00;;
9563;SDS011;4820;50.870;4.702;2022-09-27T17:21:48;9.18;;;3.78;;
9563;SDS011;4820;50.870;4.702;2022-09-27T17:24:15;5.40;;;2.22;;
9563;SDS011;4820;50.870;4.702;2022-09-27T17:26:43;6.25;;;2.72;;
9563;SDS011;4820;50.870;4.702;2022-09-27T17:29:09;5.15;;;2.65;;
9563;SDS011;4820;50.870;4.702;2022-09-27T17:31:37;4.47;;;2.72;;
9563;SDS011;4820;50.870;4.702;2022-09-27T17:34:04;7.70;;;4.00;;
9563;SDS011;4820;50.870;4.702;2022-09-27T17:36:31;9.82;;;4.45;;
9563;SDS011;4820;50.870;4.702;2022-09-27T17:38:58;8.70;;;4.80;;
9563;SDS011;4820;50.870;4.702;2022-09-27T17:41:25;13.10;;;7.07;;
9563;SDS011;4820;50.870;4.702;2022-09-27T17:43:56;4.30;;;3.13;;
9563;SDS011;4820;50.870;4.702;2022-09-27T17:46:28;4.78;;;2.75;;
9563;SDS011;4820;50.870;4.702;2022-09-27T17:48:55;4.80;;;3.60;;
9563;SDS011;4820;50.870;4.702;2022-09-27T17:51:41;6.50;;;2.90;;
9563;SDS011;4820;50.870;4.702;2022-09-27T17:54:09;5.53;;;3.58;;
9563;SDS011;4820;50.870;4.702;2022-09-27T17:56:39;4.13;;;3.00;;
9563;SDS011;4820;50.870;4.702;2022-09-27T17:59:07;7.22;;;2.88;;
9563;SDS011;4820;50.870;4.702;2022-09-27T18:01:34;5.95;;;2.40;;
9563;SDS011;4820;50.870;4.702;2022-09-27T18:04:04;3.60;;;2.22;;
9563;SDS011;4820;50.870;4.702;2022-09-27T18:06:38;3.55;;;1.70;;
9563;SDS011;4820;50.870;4.702;2022-09-27T18:09:05;5.72;;;1.52;;
9563;SDS011;4820;50.870;4.702;2022-09-27T18:11:34;5.88;;;1.63;;
9563;SDS011;4820;50.870;4.702;2022-09-27T18:14:01;3.08;;;1.30;;
9563;SDS011;4820;50.870;4.702;2022-09-27T18:16:28;1.55;;;1.00;;
9563;SDS011;4820;50.870;4.702;2022-09-27T18:18:59;1.83;;;0.90;;
9563;SDS011;4820;50.870;4.702;2022-09-27T18:21:27;2.70;;;1.15;;
9563;SDS011;4820;50.870;4.702;2022-09-27T18:23:55;4.10;;;1.40;;
9563;SDS011;4820;50.870;4.702;2022-09-27T18:26:22;2.83;;;1.42;;
9563;SDS011;4820;50.870;4.702;2022-09-27T18:28:51;1.67;;;1.17;;
9563;SDS011;4820;50.870;4.702;2022-09-27T18:31:18;3.63;;;1.27;;
9563;SDS011;4820;50.870;4.702;2022-09-27T18:33:45;2.50;;;1.20;;
9563;SDS011;4820;50.870;4.702;2022-09-27T18:36:12;2.88;;;1.20;;
9563;SDS011;4820;50.870;4.702;2022-09-27T18:38:38;2.78;;;1.40;;
9563;SDS011;4820;50.870;4.702;2022-09-27T18:43:31;2.03;;;1.30;;
9563;SDS011;4820;50.870;4.702;2022-09-27T18:46:01;1.83;;;1.30;;